createdAt,value
2022-08-19T00:01:58.968Z,96036.25
2022-08-19T00:04:34.052Z,96032.78
2022-08-19T00:07:02.009Z,96032.03
2022-08-19T00:09:29.753Z,96035.53
2022-08-19T00:11:59.145Z,96039.00
2022-08-19T00:14:27.853Z,96041.00
2022-08-19T00:16:56.118Z,96030.75
2022-08-19T00:19:24.795Z,96022.31
2022-08-19T00:21:52.901Z,96018.31
2022-08-19T00:24:21.046Z,96013.56
2022-08-19T00:26:48.697Z,96011.53
2022-08-19T00:29:18.698Z,96004.38
2022-08-19T00:31:48.557Z,96005.84
2022-08-19T00:34:31.485Z,96013.88
2022-08-19T00:36:59.244Z,96025.59
2022-08-19T00:39:26.608Z,96024.13
2022-08-19T00:41:54.156Z,96022.84
2022-08-19T00:44:27.335Z,96026.88
2022-08-19T00:46:58.547Z,96024.13
2022-08-19T00:49:37.337Z,96015.19
2022-08-19T00:52:10.377Z,96015.72
2022-08-19T00:54:38.841Z,96015.72
2022-08-19T00:57:13.522Z,96015.50
2022-08-19T00:59:56.244Z,96011.28
2022-08-19T01:02:31.944Z,96012.59
2022-08-19T01:05:00.470Z,96011.28
2022-08-19T01:07:27.951Z,96005.63
2022-08-19T01:10:04.366Z,96009.09
2022-08-19T01:12:32.146Z,96013.13
2022-08-19T01:15:01.060Z,96008.38
2022-08-19T01:17:29.010Z,96011.66
2022-08-19T01:19:56.798Z,96005.41
2022-08-19T01:22:37.737Z,96005.97
2022-08-19T01:25:14.686Z,95991.53
2022-08-19T01:27:46.025Z,95990.03
2022-08-19T01:30:23.964Z,95991.31
2022-08-19T01:32:52.791Z,95993.31
2022-08-19T01:35:21.539Z,96002.81
2022-08-19T01:37:51.494Z,96011.63
2022-08-19T01:40:21.657Z,96008.31
2022-08-19T01:42:51.231Z,96017.13
2022-08-19T01:45:20.864Z,96015.63
2022-08-19T01:47:52.780Z,96018.38
2022-08-19T01:50:33.941Z,96001.19
2022-08-19T01:53:06.530Z,96002.44
2022-08-19T01:55:40.858Z,95999.50
2022-08-19T01:58:21.786Z,96002.81
2022-08-19T02:00:49.970Z,96002.06
2022-08-19T02:03:17.665Z,96000.06
2022-08-19T02:05:45.825Z,96009.56
2022-08-19T02:08:13.705Z,96009.56
2022-08-19T02:10:43.989Z,96014.84
2022-08-19T02:13:12.722Z,96010.63
2022-08-19T02:15:40.304Z,96018.16
2022-08-19T02:18:09.557Z,96013.19
2022-08-19T02:20:38.235Z,96015.94
2022-08-19T02:23:06.623Z,96015.00
2022-08-19T02:25:41.966Z,96008.06
2022-08-19T02:28:09.306Z,96005.31
2022-08-19T02:30:36.693Z,96015.34
2022-08-19T02:33:04.451Z,96021.34
2022-08-19T02:35:32.155Z,96019.91
2022-08-19T02:38:18.192Z,96014.97
2022-08-19T02:40:53.723Z,96021.72
2022-08-19T02:43:22.743Z,96020.22
2022-08-19T02:45:51.126Z,96024.25
2022-08-19T02:48:21.977Z,96028.28
2022-08-19T02:50:57.942Z,96031.56
2022-08-19T02:53:28.203Z,96029.16
2022-08-19T02:55:56.173Z,96030.44
2022-08-19T02:58:25.053Z,96026.75
2022-08-19T03:00:56.083Z,96034.78
2022-08-19T03:03:27.740Z,96025.63
2022-08-19T03:06:09.377Z,96029.63
2022-08-19T03:08:37.554Z,96021.22
2022-08-19T03:11:06.705Z,96025.22
2022-08-19T03:13:34.444Z,96017.53
2022-08-19T03:16:06.665Z,96027.03
2022-08-19T03:18:34.185Z,96023.38
2022-08-19T03:21:02.615Z,96022.63
2022-08-19T03:23:30.055Z,96020.41
2022-08-19T03:26:02.786Z,96026.44
2022-08-19T03:28:49.483Z,96027.16
2022-08-19T03:31:44.564Z,96022.56
2022-08-19T03:34:20.740Z,96032.78
2022-08-19T03:36:49.258Z,96034.06
2022-08-19T03:39:17.613Z,96037.88
2022-08-19T03:41:48.541Z,96035.69
2022-08-19T03:44:19.384Z,96046.44
2022-08-19T03:46:49.871Z,96049.53
2022-08-19T03:49:18.416Z,96051.31
2022-08-19T03:51:47.677Z,96050.59
2022-08-19T03:54:17.479Z,96052.38
2022-08-19T03:56:47.273Z,96050.16
2022-08-19T03:59:19.116Z,96060.16
2022-08-19T04:01:47.115Z,96059.25
2022-08-19T04:04:14.446Z,96056.84
2022-08-19T04:06:41.886Z,96062.84
2022-08-19T04:09:12.325Z,96056.25
2022-08-19T04:11:47.561Z,96054.38
2022-08-19T04:14:22.995Z,96058.88
2022-08-19T04:16:51.004Z,96056.50
2022-08-19T04:19:19.795Z,96051.34
2022-08-19T04:21:49.653Z,96051.66
2022-08-19T04:24:17.275Z,96058.22
2022-08-19T04:26:45.186Z,96057.25
2022-08-19T04:29:15.756Z,96054.31
2022-08-19T04:31:46.389Z,96050.63
2022-08-19T04:34:16.914Z,96048.97
2022-08-19T04:36:46.114Z,96050.00
2022-08-19T04:39:17.023Z,96042.13
2022-08-19T04:42:04.323Z,96045.94
2022-08-19T04:44:33.450Z,96044.47
2022-08-19T04:47:11.337Z,96054.69
2022-08-19T04:49:39.030Z,96057.03
2022-08-19T04:52:06.626Z,96061.53
2022-08-19T04:54:38.521Z,96071.75
2022-08-19T04:57:11.106Z,96067.13
2022-08-19T04:59:40.664Z,96066.59
2022-08-19T05:02:10.955Z,96067.34
2022-08-19T05:04:40.566Z,96063.13
2022-08-19T05:07:11.195Z,96065.34
2022-08-19T05:09:56.678Z,96068.59
2022-08-19T05:12:29.197Z,96072.09
2022-08-19T05:14:58.451Z,96079.78
2022-08-19T05:17:29.456Z,96083.44
2022-08-19T05:20:17.754Z,96076.19
2022-08-19T05:22:47.149Z,96072.59
2022-08-19T05:25:20.560Z,96070.25
2022-08-19T05:27:49.105Z,96065.94
2022-08-19T05:30:17.067Z,96074.56
2022-08-19T05:32:44.935Z,96076.97
2022-08-19T05:35:13.036Z,96090.88
2022-08-19T05:37:44.350Z,96091.09
2022-08-19T05:40:12.364Z,96095.72
2022-08-19T05:42:40.111Z,96094.63
2022-08-19T05:45:08.346Z,96093.59
2022-08-19T05:47:40.629Z,96081.56
2022-08-19T05:50:10.314Z,96090.19
2022-08-19T05:52:43.619Z,96093.53
2022-08-19T05:55:13.980Z,96100.88
2022-08-19T05:57:41.296Z,96125.97
2022-08-19T06:00:12.977Z,96121.13
2022-08-19T06:02:41.496Z,96123.97
2022-08-19T06:05:10.325Z,96122.75
2022-08-19T06:07:40.043Z,96114.59
2022-08-19T06:10:10.126Z,96125.63
2022-08-19T06:12:38.198Z,96130.47
2022-08-19T06:15:09.958Z,96136.56
2022-08-19T06:17:38.045Z,96149.06
2022-08-19T06:20:10.033Z,96155.88
2022-08-19T06:22:45.869Z,96157.41
2022-08-19T06:25:15.807Z,96166.63
2022-08-19T06:28:14.663Z,96167.97
2022-08-19T06:30:31.480Z,96164.94
2022-08-19T06:32:59.880Z,96166.91
2022-08-19T06:35:27.587Z,96171.69
2022-08-19T06:37:55.447Z,96165.31
2022-08-19T06:40:24.776Z,96154.56
2022-08-19T06:42:54.924Z,96164.66
2022-08-19T06:45:34.503Z,96167.47
2022-08-19T06:48:04.449Z,96159.47
2022-08-19T06:50:31.973Z,96160.78
2022-08-19T06:53:04.626Z,96158.94
2022-08-19T06:55:33.513Z,96165.03
2022-08-19T06:58:05.119Z,96169.63
2022-08-19T07:00:33.723Z,96168.56
2022-08-19T07:03:04.446Z,96165.97
2022-08-19T07:05:45.465Z,96169.31
2022-08-19T07:08:14.482Z,96166.19
2022-08-19T07:10:46.168Z,96167.88
2022-08-19T07:13:13.772Z,96170.28
2022-08-19T07:15:41.175Z,96166.63
2022-08-19T07:18:11.899Z,96166.47
2022-08-19T07:20:42.068Z,96171.59
2022-08-19T07:23:11.193Z,96169.78
2022-08-19T07:25:52.973Z,96162.84
2022-08-19T07:28:24.805Z,96163.94
2022-08-19T07:30:53.472Z,96178.84
2022-08-19T07:33:22.010Z,96172.06
2022-08-19T07:35:50.026Z,96179.22
2022-08-19T07:38:17.716Z,96178.88
2022-08-19T07:40:47.486Z,96173.22
2022-08-19T07:43:17.037Z,96177.25
2022-08-19T07:45:46.470Z,96178.16
2022-08-19T07:48:15.722Z,96168.38
2022-08-19T07:50:43.631Z,96170.41
2022-08-19T07:53:11.414Z,96170.56
2022-08-19T07:55:41.764Z,96182.63
2022-08-19T07:58:16.122Z,96176.19
2022-08-19T08:00:44.692Z,96184.75
2022-08-19T08:03:13.106Z,96181.59
2022-08-19T08:06:03.996Z,96177.69
2022-08-19T08:08:51.911Z,96186.47
2022-08-19T08:11:24.115Z,96182.16
2022-08-19T08:14:00.420Z,96179.63
2022-08-19T08:16:31.357Z,96185.44
2022-08-19T08:18:59.424Z,96179.69
2022-08-19T08:21:27.038Z,96178.75
2022-08-19T08:23:57.004Z,96171.94
2022-08-19T08:26:26.271Z,96183.53
2022-08-19T08:28:54.615Z,96182.97
2022-08-19T08:31:22.451Z,96180.84
2022-08-19T08:33:49.991Z,96185.00
2022-08-19T08:36:17.804Z,96179.06
2022-08-19T08:38:47.263Z,96180.47
2022-08-19T08:41:46.034Z,96183.00
2022-08-19T08:44:34.084Z,96173.75
2022-08-19T08:47:09.515Z,96185.47
2022-08-19T08:50:00.932Z,96174.81
2022-08-19T08:52:36.700Z,96179.75
2022-08-19T08:55:15.182Z,96182.47
2022-08-19T08:58:06.823Z,96187.03
2022-08-19T09:00:44.633Z,96196.63
2022-08-19T09:03:21.166Z,96195.00
2022-08-19T09:06:13.405Z,96193.72
2022-08-19T09:09:03.583Z,96193.19
2022-08-19T09:11:57.924Z,96201.59
2022-08-19T09:14:52.537Z,96200.69
2022-08-19T09:17:36.415Z,96193.72
2022-08-19T09:20:24.249Z,96193.34
2022-08-19T09:22:53.686Z,96191.66
2022-08-19T09:25:24.702Z,96199.31
2022-08-19T09:28:05.728Z,96195.31
2022-08-19T09:30:42.923Z,96198.75
2022-08-19T09:33:10.655Z,96194.31
2022-08-19T09:35:49.807Z,96191.16
2022-08-19T09:38:22.945Z,96179.59
2022-08-19T09:40:51.539Z,96185.53
2022-08-19T09:43:33.018Z,96176.91
2022-08-19T09:46:07.686Z,96175.53
2022-08-19T09:48:35.795Z,96180.34
2022-08-19T09:51:11.814Z,96179.00
2022-08-19T09:53:40.596Z,96171.81
2022-08-19T09:56:08.462Z,96169.66
2022-08-19T09:58:37.695Z,96173.06
2022-08-19T10:01:07.223Z,96168.75
2022-08-19T10:03:36.619Z,96172.00
2022-08-19T10:06:15.233Z,96172.81
2022-08-19T10:08:50.437Z,96167.84
2022-08-19T10:11:28.292Z,96168.78
2022-08-19T10:14:07.163Z,96162.28
2022-08-19T10:16:39.478Z,96162.81
2022-08-19T10:19:07.385Z,96166.63
2022-08-19T10:21:35.705Z,96163.88
2022-08-19T10:24:06.660Z,96152.25
2022-08-19T10:26:38.377Z,96162.38
2022-08-19T10:29:09.336Z,96157.47
2022-08-19T10:32:00.448Z,96154.53
2022-08-19T10:34:28.402Z,96154.44
2022-08-19T10:37:01.010Z,96158.28
2022-08-19T10:39:32.579Z,96156.25
2022-08-19T10:42:11.878Z,96164.31
2022-08-19T10:44:39.398Z,96146.09
2022-08-19T10:47:18.015Z,96145.66
2022-08-19T10:50:13.928Z,96143.59
2022-08-19T10:52:49.961Z,96135.91
2022-08-19T10:55:40.065Z,96140.75
2022-08-19T10:58:26.090Z,96135.63
2022-08-19T11:00:59.071Z,96133.16
2022-08-19T11:03:29.237Z,96134.75
2022-08-19T11:06:08.977Z,96138.69
2022-08-19T11:08:38.869Z,96142.19
2022-08-19T11:11:08.083Z,96132.97
2022-08-19T11:13:38.837Z,96133.84
2022-08-19T11:16:20.089Z,96132.94
2022-08-19T11:18:50.464Z,96140.09
2022-08-19T11:21:29.175Z,96137.44
2022-08-19T11:23:59.871Z,96127.06
2022-08-19T11:26:28.760Z,96127.78
2022-08-19T11:28:57.673Z,96123.34
2022-08-19T11:31:29.613Z,96127.69
2022-08-19T11:34:02.828Z,96129.84
2022-08-19T11:36:32.660Z,96127.19
2022-08-19T11:39:00.856Z,96124.63
2022-08-19T11:41:28.467Z,96121.72
2022-08-19T11:43:56.455Z,96118.88
2022-08-19T11:46:26.558Z,96115.22
2022-08-19T11:48:54.100Z,96114.66
2022-08-19T11:51:26.154Z,96121.03
2022-08-19T11:53:55.798Z,96110.84
2022-08-19T11:56:25.354Z,96117.06
2022-08-19T11:58:54.646Z,96114.66
2022-08-19T12:01:23.905Z,96106.63
2022-08-19T12:03:54.919Z,96109.41
2022-08-19T12:06:29.699Z,96109.66
2022-08-19T12:09:02.916Z,96108.59
2022-08-19T12:11:31.252Z,96094.53
2022-08-19T12:14:02.676Z,96095.41
2022-08-19T12:16:32.036Z,96091.47
2022-08-19T12:19:05.172Z,96092.47
2022-08-19T12:21:35.461Z,96088.44
2022-08-19T12:24:06.104Z,96091.69
2022-08-19T12:26:52.482Z,96081.66
2022-08-19T12:29:23.712Z,96080.69
2022-08-19T12:31:52.748Z,96075.72
2022-08-19T12:34:21.427Z,96069.50
2022-08-19T12:36:50.691Z,96072.75
2022-08-19T12:39:18.420Z,96070.97
2022-08-19T12:41:51.571Z,96067.00
2022-08-19T12:44:29.458Z,96062.94
2022-08-19T12:47:00.795Z,96049.88
2022-08-19T12:49:53.573Z,96058.25
2022-08-19T12:52:24.034Z,96069.94
2022-08-19T12:54:54.077Z,96069.84
2022-08-19T12:57:32.471Z,96082.19
2022-08-19T13:00:04.759Z,96074.47
2022-08-19T13:02:39.046Z,96069.44
2022-08-19T13:05:11.715Z,96075.75
2022-08-19T13:07:41.685Z,96075.78
2022-08-19T13:10:11.106Z,96070.47
2022-08-19T13:12:40.123Z,96074.56
2022-08-19T13:15:10.991Z,96082.59
2022-08-19T13:17:40.672Z,96079.69
2022-08-19T13:20:10.532Z,96084.28
2022-08-19T13:22:39.047Z,96082.50
2022-08-19T13:25:08.482Z,96092.47
2022-08-19T13:27:37.136Z,96089.66
2022-08-19T13:30:25.162Z,96081.47
2022-08-19T13:33:11.614Z,96081.22
2022-08-19T13:35:46.066Z,96090.19
2022-08-19T13:38:15.425Z,96087.16
2022-08-19T13:40:43.918Z,96085.13
2022-08-19T13:43:13.596Z,96075.19
2022-08-19T13:45:54.027Z,96082.81
2022-08-19T13:48:22.060Z,96079.91
2022-08-19T13:50:49.723Z,96082.44
2022-08-19T13:53:18.497Z,96085.84
2022-08-19T13:55:46.552Z,96077.72
2022-08-19T13:58:14.443Z,96081.34
2022-08-19T14:00:46.523Z,96087.41
2022-08-19T14:03:14.817Z,96090.78
2022-08-19T14:05:42.304Z,96092.25
2022-08-19T14:08:10.658Z,96084.50
2022-08-19T14:10:38.035Z,96086.53
2022-08-19T14:13:06.207Z,96083.41
2022-08-19T14:15:33.583Z,96093.22
2022-08-19T14:18:01.596Z,96101.84
2022-08-19T14:20:29.305Z,96104.25
2022-08-19T14:22:57.073Z,96101.25
2022-08-19T14:25:30.351Z,96089.84
2022-08-19T14:27:58.573Z,96095.78
2022-08-19T14:30:32.652Z,96088.38
2022-08-19T14:33:01.593Z,96090.06
2022-08-19T14:35:30.814Z,96089.81
2022-08-19T14:37:59.280Z,96087.38
2022-08-19T14:40:29.946Z,96086.41
2022-08-19T14:43:02.408Z,96079.97
2022-08-19T14:45:30.849Z,96081.91
2022-08-19T14:48:01.594Z,96081.31
2022-08-19T14:50:31.960Z,96077.56
2022-08-19T14:53:08.148Z,96077.06
2022-08-19T14:55:44.234Z,96073.56
2022-08-19T14:58:28.351Z,96076.81
2022-08-19T15:00:59.826Z,96078.75
2022-08-19T15:03:28.239Z,96074.41
2022-08-19T15:05:57.879Z,96065.41
2022-08-19T15:08:26.305Z,96062.50
2022-08-19T15:10:54.426Z,96065.03
2022-08-19T15:13:22.556Z,96066.94
2022-08-19T15:15:50.111Z,96069.97
2022-08-19T15:18:18.033Z,96068.25
2022-08-19T15:20:46.641Z,96067.28
2022-08-19T15:23:18.904Z,96064.69
2022-08-19T15:25:46.739Z,96066.97
2022-08-19T15:28:14.620Z,96059.22
2022-08-19T15:30:44.673Z,96052.78
2022-08-19T15:33:15.722Z,96056.50
2022-08-19T15:35:44.591Z,96056.97
2022-08-19T15:38:14.235Z,96063.59
2022-08-19T15:40:43.146Z,96069.63
2022-08-19T15:43:11.728Z,96064.56
2022-08-19T15:45:40.584Z,96069.25
2022-08-19T15:48:08.848Z,96069.00
2022-08-19T15:50:37.070Z,96065.63
2022-08-19T15:53:08.662Z,96062.22
2022-08-19T15:55:42.463Z,96053.44
2022-08-19T15:58:32.229Z,96058.13
2022-08-19T16:01:24.502Z,96050.31
2022-08-19T16:04:15.600Z,96056.38
2022-08-19T16:06:49.481Z,96039.81
2022-08-19T16:09:19.035Z,96050.34
2022-08-19T16:11:56.445Z,96054.81
2022-08-19T16:14:25.509Z,96054.63
2022-08-19T16:16:56.070Z,96054.63
2022-08-19T16:19:25.279Z,96051.19
2022-08-19T16:21:54.606Z,96050.34
2022-08-19T16:24:25.288Z,96055.31
2022-08-19T16:26:53.066Z,96051.06
2022-08-19T16:29:33.738Z,96059.41
2022-08-19T16:32:04.672Z,96060.72
2022-08-19T16:34:33.752Z,96059.56
2022-08-19T16:37:01.601Z,96055.69
2022-08-19T16:39:29.496Z,96062.03
2022-08-19T16:41:57.577Z,96065.69
2022-08-19T16:44:25.586Z,96063.03
2022-08-19T16:47:01.565Z,96059.28
2022-08-19T16:49:54.572Z,96063.94
2022-08-19T16:52:19.872Z,96069.38
2022-08-19T16:54:48.076Z,96072.56
2022-08-19T16:57:16.384Z,96074.84
2022-08-19T16:59:49.345Z,96075.94
2022-08-19T17:02:23.518Z,96068.94
2022-08-19T17:04:57.591Z,96081.84
2022-08-19T17:07:33.167Z,96075.94
2022-08-19T17:10:04.438Z,96079.16
2022-08-19T17:12:32.527Z,96077.81
2022-08-19T17:15:02.986Z,96072.97
2022-08-19T17:17:31.878Z,96081.97
2022-08-19T17:20:00.880Z,96081.94
2022-08-19T17:22:28.912Z,96085.91
2022-08-19T17:24:58.394Z,96092.41
2022-08-19T17:27:32.066Z,96096.25
2022-08-19T17:30:02.886Z,96094.28
2022-08-19T17:32:34.636Z,96103.44
2022-08-19T17:35:04.969Z,96106.41
2022-08-19T17:37:32.974Z,96102.34
2022-08-19T17:40:04.841Z,96104.28
2022-08-19T17:42:32.698Z,96105.66
2022-08-19T17:45:00.435Z,96102.69
2022-08-19T17:47:28.819Z,96109.44
2022-08-19T17:49:56.976Z,96117.81
2022-08-19T17:52:25.372Z,96128.66
2022-08-19T17:54:52.980Z,96127.25
2022-08-19T17:57:20.506Z,96119.38
2022-08-19T17:59:48.793Z,96128.28
2022-08-19T18:02:17.905Z,96134.88
2022-08-19T18:04:49.651Z,96129.34
2022-08-19T18:07:21.793Z,96132.56
2022-08-19T18:09:52.767Z,96139.69
2022-08-19T18:12:27.052Z,96140.28
2022-08-19T18:14:55.743Z,96139.53
2022-08-19T18:17:24.655Z,96143.78
2022-08-19T18:19:52.092Z,96147.13
2022-08-19T18:22:33.880Z,96141.69
2022-08-19T18:25:02.406Z,96149.25
2022-08-19T18:27:29.747Z,96152.91
2022-08-19T18:30:00.576Z,96149.34
2022-08-19T18:32:37.104Z,96152.22
2022-08-19T18:35:12.427Z,96156.44
2022-08-19T18:37:44.730Z,96158.72
2022-08-19T18:40:34.587Z,96164.38
2022-08-19T18:43:17.435Z,96167.84
2022-08-19T18:46:04.407Z,96163.56
2022-08-19T18:48:54.088Z,96169.91
2022-08-19T18:51:25.291Z,96177.59
2022-08-19T18:53:59.064Z,96181.16
2022-08-19T18:56:29.597Z,96179.63
2022-08-19T18:58:57.158Z,96189.66
2022-08-19T19:01:38.772Z,96182.75
2022-08-19T19:04:10.942Z,96187.97
2022-08-19T19:06:41.349Z,96196.34
2022-08-19T19:09:21.333Z,96192.22
2022-08-19T19:11:51.732Z,96195.78
2022-08-19T19:14:47.633Z,96200.69
2022-08-19T19:17:15.256Z,96200.72
2022-08-19T19:19:45.001Z,96210.56
2022-08-19T19:22:17.424Z,96212.25
2022-08-19T19:24:44.878Z,96215.66
2022-08-19T19:27:14.996Z,96222.69
2022-08-19T19:29:42.973Z,96222.94
2022-08-19T19:32:19.024Z,96219.81
2022-08-19T19:34:46.542Z,96234.78
2022-08-19T19:37:14.294Z,96234.28
2022-08-19T19:39:45.163Z,96235.25
2022-08-19T19:42:20.651Z,96234.16
2022-08-19T19:44:55.124Z,96230.50
2022-08-19T19:47:28.797Z,96241.75
2022-08-19T19:50:14.195Z,96243.44
2022-08-19T19:52:45.879Z,96252.88
2022-08-19T19:55:16.035Z,96253.44
2022-08-19T19:57:43.595Z,96253.66
2022-08-19T20:00:13.667Z,96257.16
2022-08-19T20:02:47.870Z,96250.00
2022-08-19T20:05:21.526Z,96254.59
2022-08-19T20:08:10.164Z,96255.53
2022-08-19T20:10:38.794Z,96260.38
2022-08-19T20:13:07.808Z,96257.06
2022-08-19T20:15:40.378Z,96260.03
2022-08-19T20:18:11.864Z,96259.50
2022-08-19T20:20:39.437Z,96267.06
2022-08-19T20:23:09.917Z,96258.97
2022-08-19T20:25:39.076Z,96268.00
2022-08-19T20:28:06.676Z,96270.97
2022-08-19T20:30:34.466Z,96270.03
2022-08-19T20:33:07.158Z,96273.38
2022-08-19T20:35:36.804Z,96271.91
2022-08-19T20:38:09.697Z,96269.53
2022-08-19T20:40:39.227Z,96266.56
2022-08-19T20:43:13.822Z,96269.34
2022-08-19T20:45:41.505Z,96268.25
2022-08-19T20:48:10.779Z,96266.03
2022-08-19T20:50:39.073Z,96268.06
2022-08-19T20:53:15.335Z,96270.47
2022-08-19T20:55:49.670Z,96272.31
2022-08-19T20:58:19.594Z,96275.63
2022-08-19T21:00:48.472Z,96273.97
2022-08-19T21:03:19.866Z,96272.53
2022-08-19T21:05:47.272Z,96284.66
2022-08-19T21:08:18.397Z,96285.41
2022-08-19T21:10:47.974Z,96289.97
2022-08-19T21:13:17.050Z,96282.09
2022-08-19T21:15:44.657Z,96283.38
2022-08-19T21:18:17.328Z,96284.84
2022-08-19T21:20:46.063Z,96292.22
2022-08-19T21:23:18.201Z,96291.50
2022-08-19T21:25:54.029Z,96291.31
2022-08-19T21:28:30.001Z,96290.75
2022-08-19T21:31:06.531Z,96286.88
2022-08-19T21:33:34.552Z,96301.94
2022-08-19T21:36:03.340Z,96304.50
2022-08-19T21:38:31.468Z,96301.75
2022-08-19T21:40:58.895Z,96296.63
2022-08-19T21:43:26.445Z,96294.41
2022-08-19T21:45:53.691Z,96298.44
2022-08-19T21:48:21.435Z,96307.28
2022-08-19T21:50:49.342Z,96304.34
2022-08-19T21:53:18.189Z,96304.88
2022-08-19T21:55:53.080Z,96315.91
2022-08-19T21:58:30.027Z,96314.28
2022-08-19T22:01:06.373Z,96314.66
2022-08-19T22:03:39.485Z,96319.44
2022-08-19T22:06:07.305Z,96321.44
2022-08-19T22:08:34.685Z,96322.72
2022-08-19T22:11:04.044Z,96318.50
2022-08-19T22:13:39.886Z,96321.09
2022-08-19T22:16:09.074Z,96318.34
2022-08-19T22:18:36.410Z,96305.09
2022-08-19T22:21:08.255Z,96308.97
2022-08-19T22:23:38.525Z,96308.22
2022-08-19T22:26:06.966Z,96312.44
2022-08-19T22:28:34.326Z,96305.47
2022-08-19T22:31:03.428Z,96299.75
2022-08-19T22:33:32.614Z,96301.25
2022-08-19T22:36:00.210Z,96299.03
2022-08-19T22:38:27.940Z,96294.06
2022-08-19T22:40:56.833Z,96293.16
2022-08-19T22:43:27.051Z,96297.19
2022-08-19T22:45:55.325Z,96292.22
2022-08-19T22:48:27.554Z,96286.53
2022-08-19T22:51:14.626Z,96291.69
2022-08-19T22:53:45.431Z,96293.72
2022-08-19T22:56:15.499Z,96297.75
2022-08-19T22:58:43.836Z,96294.78
2022-08-19T23:01:24.907Z,96295.91
2022-08-19T23:03:59.842Z,96292.22
2022-08-19T23:06:33.345Z,96288.19
2022-08-19T23:09:05.425Z,96289.28
2022-08-19T23:11:41.535Z,96292.06
2022-08-19T23:14:11.664Z,96296.63
2022-08-19T23:16:41.404Z,96282.69
2022-08-19T23:19:10.335Z,96283.78
2022-08-19T23:21:39.727Z,96284.88
2022-08-19T23:24:07.135Z,96294.22
2022-08-19T23:26:36.004Z,96295.34
2022-08-19T23:29:23.414Z,96291.66
2022-08-19T23:31:50.904Z,96286.50
2022-08-19T23:34:18.307Z,96283.56
2022-08-19T23:36:46.615Z,96285.91
2022-08-19T23:39:13.883Z,96281.31
2022-08-19T23:41:41.374Z,96281.16
2022-08-19T23:44:14.621Z,96277.81
2022-08-19T23:46:55.378Z,96280.91
2022-08-19T23:49:25.234Z,96281.28
2022-08-19T23:51:54.721Z,96285.69
2022-08-19T23:54:22.144Z,96288.97
2022-08-19T23:56:55.027Z,96287.31
2022-08-19T23:59:22.795Z,96290.41
